Time;durP1;ratioP1;P1;durP2;ratioP2;P2;SDS_P1;SDS_P2;PMS_P1;PMS_P2;Temp;Humidity;BMP_temperature;BMP_pressure;BME280_temperature;BME280_humidity;BME280_pressure;Samples;Min_cycle;Max_cycle;Signal;HPM_P1;HPM_P2
2024/01/15 00:00:57;;;;;;;6.30;1.77;;;;;;;;;;5002580;28;92912;-69
2024/01/15 00:03:24;;;;;;;11.52;2.25;;;;;;;;;;5005361;28;93795;-69
2024/01/15 00:05:50;;;;;;;10.65;1.90;;;;;;;;;;5001634;28;91788;-69
2024/01/15 00:08:17;;;;;;;11.30;2.72;;;;;;;;;;5005303;28;93459;-69
2024/01/15 00:10:43;;;;;;;13.00;2.20;;;;;;;;;;4999911;28;93371;-69
2024/01/15 00:13:09;;;;;;;9.82;1.90;;;;;;;;;;4999270;28;94976;-69
2024/01/15 00:15:36;;;;;;;5.82;1.70;;;;;;;;;;5004392;28;95510;-68
2024/01/15 00:18:02;;;;;;;7.00;1.75;;;;;;;;;;5002340;28;93485;-69
2024/01/15 00:20:29;;;;;;;13.90;2.08;;;;;;;;;;5002937;28;92447;-68
2024/01/15 00:22:56;;;;;;;9.88;2.17;;;;;;;;;;5001792;28;93649;-68
2024/01/15 00:25:23;;;;;;;14.32;2.33;;;;;;;;;;5005325;28;94473;-69
2024/01/15 00:27:50;;;;;;;13.82;2.20;;;;;;;;;;5003476;28;93177;-69
2024/01/15 00:30:16;;;;;;;20.48;2.13;;;;;;;;;;5002057;28;92758;-69
2024/01/15 00:32:43;;;;;;;6.32;2.00;;;;;;;;;;4996143;28;93502;-69
2024/01/15 00:35:09;;;;;;;15.35;2.53;;;;;;;;;;5000771;28;93512;-69
2024/01/15 00:37:35;;;;;;;8.65;1.85;;;;;;;;;;5001346;28;95802;-69
2024/01/15 00:40:02;;;;;;;12.90;2.05;;;;;;;;;;5003066;28;92392;-70
2024/01/15 00:42:28;;;;;;;7.50;1.55;;;;;;;;;;4999678;28;93236;-69
2024/01/15 00:44:55;;;;;;;27.33;2.70;;;;;;;;;;5001700;28;93472;-69
2024/01/15 00:47:21;;;;;;;14.60;2.45;;;;;;;;;;5004652;28;92497;-69
2024/01/15 00:49:48;;;;;;;11.98;1.77;;;;;;;;;;5000396;28;93774;-68
2024/01/15 00:52:15;;;;;;;11.63;1.90;;;;;;;;;;5004417;28;92504;-69
2024/01/15 00:54:41;;;;;;;8.27;1.50;;;;;;;;;;4999271;28;93400;-69
2024/01/15 00:57:07;;;;;;;13.93;2.35;;;;;;;;;;4997847;28;93628;-69
2024/01/15 00:59:34;;;;;;;8.00;1.50;;;;;;;;;;5001838;28;92443;-69
2024/01/15 01:02:00;;;;;;;14.40;2.00;;;;;;;;;;5000919;28;96715;-69
2024/01/15 01:04:26;;;;;;;11.88;2.08;;;;;;;;;;5001335;28;93391;-69
2024/01/15 01:06:53;;;;;;;8.88;1.58;;;;;;;;;;5001679;28;92851;-69
2024/01/15 01:09:19;;;;;;;19.38;2.60;;;;;;;;;;5006735;28;93677;-69
2024/01/15 01:11:46;;;;;;;8.27;1.30;;;;;;;;;;5005497;28;93979;-69
2024/01/15 01:14:12;;;;;;;15.75;2.58;;;;;;;;;;5000266;28;93732;-69
2024/01/15 01:16:38;;;;;;;8.30;1.40;;;;;;;;;;5003602;28;93532;-68
2024/01/15 01:19:06;;;;;;;13.15;2.17;;;;;;;;;;5005123;28;91761;-69
2024/01/15 01:21:33;;;;;;;11.40;1.83;;;;;;;;;;5005324;28;92544;-69
2024/01/15 01:24:00;;;;;;;10.52;2.05;;;;;;;;;;5002795;28;93261;-69
2024/01/15 01:26:26;;;;;;;15.93;1.55;;;;;;;;;;5003167;28;94906;-69
2024/01/15 01:28:52;;;;;;;9.15;1.33;;;;;;;;;;5008586;28;95452;-69
2024/01/15 01:31:19;;;;;;;16.35;1.73;;;;;;;;;;4999140;28;92672;-68
2024/01/15 01:33:45;;;;;;;15.70;2.05;;;;;;;;;;4996982;28;93441;-69
2024/01/15 01:36:12;;;;;;;13.32;2.03;;;;;;;;;;5009034;28;94462;-69
2024/01/15 01:38:39;;;;;;;14.88;2.13;;;;;;;;;;5009611;28;92639;-69
2024/01/15 01:41:06;;;;;;;13.18;2.22;;;;;;;;;;4997915;28;93161;-69
2024/01/15 01:43:32;;;;;;;6.35;1.35;;;;;;;;;;5003693;28;91790;-69
2024/01/15 01:46:00;;;;;;;12.02;2.47;;;;;;;;;;5001762;28;92690;-69
2024/01/15 01:48:27;;;;;;;14.73;1.95;;;;;;;;;;5004483;28;93268;-69
2024/01/15 01:50:54;;;;;;;9.82;1.92;;;;;;;;;;4999926;28;95927;-69
2024/01/15 01:53:21;;;;;;;17.63;1.98;;;;;;;;;;5001345;28;95612;-69
2024/01/15 01:55:48;;;;;;;4.45;1.13;;;;;;;;;;5003300;28;93436;-69
2024/01/15 01:58:14;;;;;;;13.00;2.00;;;;;;;;;;5000475;28;92417;-69
2024/01/15 02:00:41;;;;;;;13.73;2.22;;;;;;;;;;5002259;28;93864;-69
2024/01/15 02:03:08;;;;;;;7.13;1.40;;;;;;;;;;5002447;28;93734;-69
2024/01/15 02:05:35;;;;;;;8.00;1.77;;;;;;;;;;5002918;28;94110;-69
2024/01/15 02:08:01;;;;;;;23.23;2.40;;;;;;;;;;5005505;28;93146;-69
2024/01/15 02:10:27;;;;;;;14.00;1.65;;;;;;;;;;5003926;28;93563;-68
2024/01/15 02:12:54;;;;;;;14.60;1.88;;;;;;;;;;5003098;28;92741;-69
2024/01/15 02:15:20;;;;;;;8.77;1.27;;;;;;;;;;5003263;28;95851;-68
2024/01/15 02:18:12;;;;;;;12.75;1.85;;;;;;;;;;5004231;28;92318;-68
2024/01/15 02:20:39;;;;;;;12.57;2.03;;;;;;;;;;5001112;28;94014;-69
2024/01/15 02:23:05;;;;;;;16.02;1.80;;;;;;;;;;5004073;28;93885;-69
2024/01/15 02:25:32;;;;;;;6.43;1.42;;;;;;;;;;5001303;28;92449;-69
2024/01/15 02:27:58;;;;;;;11.23;1.33;;;;;;;;;;5008418;28;94393;-69
2024/01/15 02:30:25;;;;;;;10.98;1.48;;;;;;;;;;5000035;28;93729;-68
2024/01/15 02:32:52;;;;;;;17.25;1.58;;;;;;;;;;5006779;28;92035;-69
2024/01/15 02:35:19;;;;;;;5.80;1.27;;;;;;;;;;5006685;28;92703;-69
2024/01/15 02:37:45;;;;;;;9.02;1.73;;;;;;;;;;5001612;28;92562;-69
2024/01/15 02:40:11;;;;;;;5.57;1.98;;;;;;;;;;5003905;28;94730;-69
2024/01/15 02:42:37;;;;;;;2.50;0.65;;;;;;;;;;5002327;28;93529;-68
2024/01/15 02:45:04;;;;;;;1.20;0.45;;;;;;;;;;5001092;28;94053;-69
2024/01/15 02:47:31;;;;;;;3.20;0.93;;;;;;;;;;5005733;28;93250;-69
2024/01/15 02:49:57;;;;;;;7.78;1.27;;;;;;;;;;5004723;28;93364;-69
2024/01/15 02:52:24;;;;;;;6.40;0.70;;;;;;;;;;5002098;28;92450;-69
2024/01/15 02:54:50;;;;;;;3.72;0.55;;;;;;;;;;5002656;28;93423;-69
2024/01/15 02:57:16;;;;;;;14.35;1.30;;;;;;;;;;4997617;28;92711;-69
2024/01/15 02:59:43;;;;;;;7.60;0.85;;;;;;;;;;5001239;28;93769;-69
2024/01/15 03:02:09;;;;;;;11.18;1.75;;;;;;;;;;4998907;28;93480;-69
2024/01/15 03:04:35;;;;;;;4.80;1.00;;;;;;;;;;4999781;28;94862;-69
2024/01/15 03:07:02;;;;;;;7.45;1.20;;;;;;;;;;5003033;28;95845;-65
2024/01/15 03:09:28;;;;;;;2.05;0.60;;;;;;;;;;5005929;28;93477;-65
2024/01/15 03:11:54;;;;;;;3.85;0.90;;;;;;;;;;4999685;28;92474;-66
2024/01/15 03:14:21;;;;;;;7.85;1.17;;;;;;;;;;5000857;28;93065;-66
2024/01/15 03:16:47;;;;;;;12.73;1.35;;;;;;;;;;4994463;28;93614;-66
2024/01/15 03:19:14;;;;;;;7.15;1.20;;;;;;;;;;5004285;28;92395;-65
2024/01/15 03:21:40;;;;;;;13.23;2.28;;;;;;;;;;5002324;28;93078;-66
2024/01/15 03:24:06;;;;;;;5.43;0.90;;;;;;;;;;5034328;27;92432;-65
2024/01/15 03:26:33;;;;;;;5.55;0.82;;;;;;;;;;4999883;28;93104;-66
2024/01/15 03:28:59;;;;;;;9.27;1.25;;;;;;;;;;4995938;28;96199;-66
2024/01/15 03:31:26;;;;;;;9.13;1.10;;;;;;;;;;5003555;28;92694;-65
2024/01/15 03:33:52;;;;;;;4.82;1.13;;;;;;;;;;4999535;28;95166;-66
2024/01/15 03:36:19;;;;;;;5.80;1.40;;;;;;;;;;4994627;28;93549;-65
2024/01/15 03:38:45;;;;;;;6.80;1.40;;;;;;;;;;5008139;28;92601;-66
2024/01/15 03:41:12;;;;;;;8.50;1.05;;;;;;;;;;5002234;28;93338;-66
2024/01/15 03:43:39;;;;;;;11.35;1.58;;;;;;;;;;5004191;28;92623;-65
2024/01/15 03:46:06;;;;;;;3.58;1.35;;;;;;;;;;5001713;28;93005;-65
2024/01/15 03:48:33;;;;;;;7.30;1.30;;;;;;;;;;4998174;28;95221;-65
2024/01/15 03:50:59;;;;;;;4.10;0.90;;;;;;;;;;5001351;28;92466;-66
2024/01/15 03:53:25;;;;;;;6.53;0.90;;;;;;;;;;5004228;28;94962;-66
2024/01/15 03:55:52;;;;;;;5.28;0.77;;;;;;;;;;5001533;28;92585;-66
2024/01/15 03:58:18;;;;;;;8.63;0.88;;;;;;;;;;4994747;28;92398;-65
2024/01/15 04:00:45;;;;;;;5.35;0.93;;;;;;;;;;5004093;28;94175;-66
2024/01/15 04:03:11;;;;;;;6.82;1.10;;;;;;;;;;5002167;28;92413;-66
2024/01/15 04:05:38;;;;;;;10.65;1.25;;;;;;;;;;4998577;28;93291;-66
2024/01/15 04:08:04;;;;;;;9.13;1.70;;;;;;;;;;5006989;28;93578;-66
2024/01/15 04:10:31;;;;;;;7.55;1.25;;;;;;;;;;5003848;28;91881;-66
2024/01/15 04:12:59;;;;;;;8.88;0.90;;;;;;;;;;5000689;28;93423;-66
2024/01/15 04:15:26;;;;;;;9.43;1.25;;;;;;;;;;4997528;28;93320;-66
2024/01/15 04:17:52;;;;;;;4.88;0.90;;;;;;;;;;4993910;28;94807;-66
2024/01/15 04:20:18;;;;;;;17.10;1.77;;;;;;;;;;5004459;28;96725;-66
2024/01/15 04:22:48;;;;;;;6.53;0.80;;;;;;;;;;5003277;28;93724;-67
2024/01/15 04:25:14;;;;;;;7.60;1.30;;;;;;;;;;5002312;28;93080;-66
2024/01/15 04:27:40;;;;;;;7.80;1.02;;;;;;;;;;5002742;28;93551;-66
2024/01/15 04:30:07;;;;;;;7.32;1.50;;;;;;;;;;5001973;28;92555;-66
2024/01/15 04:32:33;;;;;;;10.68;1.73;;;;;;;;;;5000656;28;93291;-66
2024/01/15 04:35:00;;;;;;;22.52;2.15;;;;;;;;;;4999890;28;92346;-66
2024/01/15 04:37:27;;;;;;;6.25;1.08;;;;;;;;;;4997080;28;92746;-66
2024/01/15 04:39:54;;;;;;;10.63;1.30;;;;;;;;;;5002355;28;93133;-66
2024/01/15 04:42:21;;;;;;;3.05;0.60;;;;;;;;;;4994377;28;95792;-65
2024/01/15 04:44:47;;;;;;;9.70;1.00;;;;;;;;;;5007444;28;92591;-66
2024/01/15 04:47:14;;;;;;;6.47;1.45;;;;;;;;;;5000756;28;93531;-65
2024/01/15 04:49:40;;;;;;;3.92;1.42;;;;;;;;;;5002628;28;92438;-66
2024/01/15 04:52:10;;;;;;;6.82;1.40;;;;;;;;;;5000088;28;93070;-65
2024/01/15 04:54:36;;;;;;;11.05;1.83;;;;;;;;;;5000303;28;93434;-66
2024/01/15 04:57:03;;;;;;;11.38;1.70;;;;;;;;;;4998555;28;92523;-66
2024/01/15 04:59:29;;;;;;;7.53;1.48;;;;;;;;;;5001146;28;93458;-66
2024/01/15 05:01:56;;;;;;;8.40;1.40;;;;;;;;;;5000958;28;93552;-66
2024/01/15 05:04:22;;;;;;;6.07;1.60;;;;;;;;;;5004798;28;92332;-66
2024/01/15 05:06:49;;;;;;;5.95;1.13;;;;;;;;;;5001841;28;94926;-66
2024/01/15 05:09:15;;;;;;;10.70;1.40;;;;;;;;;;4996777;28;95323;-66
2024/01/15 05:11:42;;;;;;;11.48;1.17;;;;;;;;;;4997435;28;93580;-66
2024/01/15 05:14:08;;;;;;;12.50;1.10;;;;;;;;;;4999306;28;93498;-66
2024/01/15 05:16:34;;;;;;;16.85;2.20;;;;;;;;;;4998286;28;92501;-66
2024/01/15 05:19:01;;;;;;;17.35;6.85;;;;;;;;;;5001940;28;93194;-66
2024/01/15 05:21:27;;;;;;;10.02;3.03;;;;;;;;;;5001996;28;94358;-66
2024/01/15 05:23:54;;;;;;;8.77;2.40;;;;;;;;;;5003012;28;91836;-65
2024/01/15 05:26:20;;;;;;;12.60;2.00;;;;;;;;;;5000333;28;92964;-66
2024/01/15 05:28:46;;;;;;;10.38;1.48;;;;;;;;;;5003408;28;93442;-66
2024/01/15 05:31:13;;;;;;;9.32;1.58;;;;;;;;;;5000371;28;94947;-66
2024/01/15 05:33:40;;;;;;;5.53;1.00;;;;;;;;;;4999997;28;93466;-65
2024/01/15 05:36:06;;;;;;;7.80;0.93;;;;;;;;;;5000124;28;92530;-66
2024/01/15 05:38:33;;;;;;;7.32;1.48;;;;;;;;;;5000935;28;94300;-66
2024/01/15 05:40:59;;;;;;;9.65;1.55;;;;;;;;;;4999686;28;94234;-66
2024/01/15 05:43:26;;;;;;;4.47;1.55;;;;;;;;;;4999743;28;92793;-66
2024/01/15 05:45:52;;;;;;;18.10;2.97;;;;;;;;;;5002912;28;93107;-66
2024/01/15 05:48:19;;;;;;;16.45;5.65;;;;;;;;;;5002139;28;92474;-66
2024/01/15 05:50:45;;;;;;;16.95;4.43;;;;;;;;;;4997690;28;92667;-66
2024/01/15 05:53:11;;;;;;;9.63;1.38;;;;;;;;;;4998027;28;93488;-66
2024/01/15 05:55:38;;;;;;;10.60;1.42;;;;;;;;;;5001798;28;94873;-66
2024/01/15 05:58:05;;;;;;;6.57;1.80;;;;;;;;;;5001146;28;95531;-66
2024/01/15 06:00:33;;;;;;;12.35;1.95;;;;;;;;;;5002370;28;94432;-66
2024/01/15 06:02:59;;;;;;;5.82;1.50;;;;;;;;;;5008846;28;92566;-66
2024/01/15 06:05:26;;;;;;;6.13;1.77;;;;;;;;;;5005626;28;93330;-66
2024/01/15 06:07:52;;;;;;;12.88;1.20;;;;;;;;;;5009220;28;96656;-66
2024/01/15 06:10:19;;;;;;;6.07;1.23;;;;;;;;;;5008878;28;92511;-66
2024/01/15 06:12:45;;;;;;;8.32;1.23;;;;;;;;;;5002671;28;92671;-66
2024/01/15 06:15:12;;;;;;;3.60;1.30;;;;;;;;;;5005500;28;92432;-66
2024/01/15 06:17:39;;;;;;;9.43;2.05;;;;;;;;;;5000717;28;93095;-66
2024/01/15 06:20:07;;;;;;;8.90;2.60;;;;;;;;;;5002798;28;97009;-66
2024/01/15 06:22:33;;;;;;;10.68;3.47;;;;;;;;;;5004711;28;92497;-66
2024/01/15 06:25:00;;;;;;;12.50;3.97;;;;;;;;;;5006181;28;94571;-66
2024/01/15 06:27:26;;;;;;;9.80;4.53;;;;;;;;;;5003880;28;93481;-66
2024/01/15 06:29:52;;;;;;;2.83;1.60;;;;;;;;;;5004933;28;92679;-66
2024/01/15 06:32:19;;;;;;;10.60;2.20;;;;;;;;;;5007935;28;93175;-66
2024/01/15 06:34:45;;;;;;;5.60;1.38;;;;;;;;;;4998851;28;92618;-66
2024/01/15 06:37:11;;;;;;;5.60;1.90;;;;;;;;;;5000984;28;93243;-66
2024/01/15 06:39:38;;;;;;;12.38;2.72;;;;;;;;;;5005869;28;93734;-70
2024/01/15 06:42:04;;;;;;;3.13;1.52;;;;;;;;;;5004077;28;92525;-69
2024/01/15 06:44:31;;;;;;;4.28;1.58;;;;;;;;;;5003897;28;94891;-70
2024/01/15 06:47:02;;;;;;;8.52;1.90;;;;;;;;;;4997450;28;93504;-69
2024/01/15 06:49:29;;;;;;;4.35;2.50;;;;;;;;;;5030753;27;92385;-69
2024/01/15 06:51:55;;;;;;;8.35;3.00;;;;;;;;;;5001170;28;93168;-70
2024/01/15 06:54:23;;;;;;;2.15;1.50;;;;;;;;;;5002539;28;94138;-69
2024/01/15 06:56:50;;;;;;;1.85;1.35;;;;;;;;;;5005355;28;92408;-70
2024/01/15 06:59:16;;;;;;;8.50;1.80;;;;;;;;;;5035388;27;94860;-69
2024/01/15 07:01:45;;;;;;;2.40;1.40;;;;;;;;;;5006672;28;91722;-70
2024/01/15 07:04:12;;;;;;;12.48;2.22;;;;;;;;;;5001603;28;92459;-70
2024/01/15 07:06:38;;;;;;;4.97;1.90;;;;;;;;;;5001266;28;93640;-70
2024/01/15 07:09:06;;;;;;;1.88;1.50;;;;;;;;;;4996264;28;95376;-71
2024/01/15 07:11:32;;;;;;;2.40;1.75;;;;;;;;;;5006796;28;95491;-70
2024/01/15 07:13:58;;;;;;;2.10;1.40;;;;;;;;;;5000891;28;93489;-70
2024/01/15 07:16:25;;;;;;;4.00;2.70;;;;;;;;;;5008240;28;92610;-70
2024/01/15 07:19:03;;;;;;;4.28;2.40;;;;;;;;;;5001601;28;92634;-70
2024/01/15 07:21:30;;;;;;;6.47;2.40;;;;;;;;;;5001553;28;92550;-70
2024/01/15 07:23:56;;;;;;;4.60;2.13;;;;;;;;;;5000583;28;93554;-70
2024/01/15 07:26:22;;;;;;;4.28;2.38;;;;;;;;;;5003027;28;94053;-71
2024/01/15 07:28:49;;;;;;;10.90;4.47;;;;;;;;;;4997593;28;92501;-70
2024/01/15 07:31:15;;;;;;;11.55;4.82;;;;;;;;;;5006824;28;94185;-71
2024/01/15 07:33:42;;;;;;;13.13;5.75;;;;;;;;;;4990873;28;97076;-71
2024/01/15 07:36:08;;;;;;;6.85;3.85;;;;;;;;;;5003481;28;92480;-71
2024/01/15 07:38:35;;;;;;;6.97;3.28;;;;;;;;;;5006338;28;94555;-71
2024/01/15 07:41:01;;;;;;;7.10;2.75;;;;;;;;;;5001934;28;92445;-73
2024/01/15 07:43:28;;;;;;;4.43;2.70;;;;;;;;;;5002785;28;93111;-72
2024/01/15 07:45:54;;;;;;;6.55;2.83;;;;;;;;;;5004608;28;93456;-72
2024/01/15 07:48:21;;;;;;;3.10;2.80;;;;;;;;;;5003841;28;92625;-71
2024/01/15 07:50:47;;;;;;;3.92;2.17;;;;;;;;;;5002069;28;93787;-68
2024/01/15 07:53:13;;;;;;;4.57;2.13;;;;;;;;;;5001650;28;93392;-66
2024/01/15 07:55:40;;;;;;;4.50;2.40;;;;;;;;;;5002352;28;93017;-68
2024/01/15 07:58:06;;;;;;;3.78;2.20;;;;;;;;;;5034323;27;94774;-68
2024/01/15 08:00:42;;;;;;;3.55;1.80;;;;;;;;;;4999516;28;92434;-69
2024/01/15 08:03:08;;;;;;;4.47;1.98;;;;;;;;;;4999951;28;93401;-67
2024/01/15 08:05:35;;;;;;;2.88;1.70;;;;;;;;;;4999306;28;93535;-70
2024/01/15 08:08:01;;;;;;;4.95;2.10;;;;;;;;;;4996429;28;92829;-69
2024/01/15 08:10:28;;;;;;;5.03;3.40;;;;;;;;;;5005147;28;93165;-67
2024/01/15 08:12:55;;;;;;;7.30;3.40;;;;;;;;;;5000344;28;93735;-66
2024/01/15 08:15:21;;;;;;;5.55;3.20;;;;;;;;;;4999443;28;91860;-67
2024/01/15 08:17:48;;;;;;;5.43;3.00;;;;;;;;;;5000382;28;92786;-65
2024/01/15 08:20:15;;;;;;;5.78;3.10;;;;;;;;;;5005369;28;93738;-68
2024/01/15 08:22:42;;;;;;;12.45;3.53;;;;;;;;;;5003737;28;94783;-67
2024/01/15 08:25:08;;;;;;;10.77;3.30;;;;;;;;;;4999400;28;94490;-69
2024/01/15 08:27:35;;;;;;;6.88;2.70;;;;;;;;;;5029254;27;92864;-66
2024/01/15 08:30:01;;;;;;;7.47;3.40;;;;;;;;;;4997354;28;94618;-67
2024/01/15 08:32:28;;;;;;;16.15;5.45;;;;;;;;;;4992580;28;94059;-66
2024/01/15 08:34:54;;;;;;;10.93;4.95;;;;;;;;;;4995662;28;92542;-67
2024/01/15 08:37:21;;;;;;;12.00;3.75;;;;;;;;;;4996165;28;93203;-66
2024/01/15 08:39:47;;;;;;;6.50;3.03;;;;;;;;;;5000750;28;93062;-67
2024/01/15 08:42:17;;;;;;;21.42;3.67;;;;;;;;;;4999593;28;93596;-67
2024/01/15 08:44:43;;;;;;;8.55;2.47;;;;;;;;;;5005206;28;93551;-67
2024/01/15 08:47:10;;;;;;;8.18;2.03;;;;;;;;;;4994892;28;94938;-65
2024/01/15 08:49:36;;;;;;;13.68;4.00;;;;;;;;;;5002419;28;96055;-66
2024/01/15 08:52:03;;;;;;;10.00;3.30;;;;;;;;;;5001581;28;94781;-67
2024/01/15 08:54:30;;;;;;;10.27;3.00;;;;;;;;;;4998785;28;92654;-67
2024/01/15 08:56:56;;;;;;;13.65;3.63;;;;;;;;;;4998619;28;93163;-67
2024/01/15 08:59:25;;;;;;;12.60;2.80;;;;;;;;;;4998694;28;94438;-67
2024/01/15 09:01:52;;;;;;;7.85;1.90;;;;;;;;;;5001962;28;92698;-67
2024/01/15 09:04:19;;;;;;;14.73;3.03;;;;;;;;;;5000241;28;93388;-67
2024/01/15 09:06:46;;;;;;;4.70;2.00;;;;;;;;;;4994407;28;92612;-66
2024/01/15 09:09:14;;;;;;;9.45;2.83;;;;;;;;;;4999587;28;93128;-67
2024/01/15 09:11:41;;;;;;;5.03;2.30;;;;;;;;;;4993902;28;96652;-67
2024/01/15 09:14:09;;;;;;;7.85;1.92;;;;;;;;;;4994586;28;92811;-67
2024/01/15 09:16:35;;;;;;;10.35;2.42;;;;;;;;;;5002317;28;93412;-67
2024/01/15 09:19:01;;;;;;;8.48;2.42;;;;;;;;;;4989894;28;93323;-68
2024/01/15 09:21:28;;;;;;;9.40;1.85;;;;;;;;;;4991975;28;93158;-66
2024/01/15 09:23:54;;;;;;;6.45;1.25;;;;;;;;;;4991234;28;97256;-66
2024/01/15 09:26:21;;;;;;;9.50;1.75;;;;;;;;;;4992310;28;93376;-67
2024/01/15 09:28:47;;;;;;;7.40;2.03;;;;;;;;;;4994036;28;93125;-66
2024/01/15 09:31:14;;;;;;;7.25;1.90;;;;;;;;;;5000625;28;93806;-67
2024/01/15 09:33:40;;;;;;;4.07;1.92;;;;;;;;;;5000770;28;92546;-67
2024/01/15 09:36:07;;;;;;;6.28;1.73;;;;;;;;;;5000903;28;95121;-67
2024/01/15 09:38:33;;;;;;;3.58;1.25;;;;;;;;;;5002637;28;93425;-66
2024/01/15 09:41:00;;;;;;;10.32;1.58;;;;;;;;;;5005351;28;92500;-67
2024/01/15 09:43:26;;;;;;;4.32;1.10;;;;;;;;;;5003574;28;93338;-68
2024/01/15 09:45:53;;;;;;;7.00;1.67;;;;;;;;;;5000099;28;93502;-67
2024/01/15 09:48:20;;;;;;;6.93;1.33;;;;;;;;;;5004306;28;92557;-68
2024/01/15 09:50:46;;;;;;;7.38;1.38;;;;;;;;;;5003457;28;94004;-67
2024/01/15 09:53:14;;;;;;;6.10;1.50;;;;;;;;;;5004783;28;91859;-67
2024/01/15 09:55:41;;;;;;;8.13;1.58;;;;;;;;;;4997256;28;92646;-68
2024/01/15 09:58:07;;;;;;;6.40;1.75;;;;;;;;;;5000173;28;94520;-67
2024/01/15 10:00:38;;;;;;;9.00;1.42;;;;;;;;;;5005416;28;95078;-68
2024/01/15 10:03:06;;;;;;;9.40;1.58;;;;;;;;;;4996276;28;95405;-67
2024/01/15 10:05:32;;;;;;;6.38;1.38;;;;;;;;;;4998000;28;92613;-68
2024/01/15 10:08:00;;;;;;;7.65;1.25;;;;;;;;;;5008979;28;92521;-68
2024/01/15 10:10:27;;;;;;;5.60;1.92;;;;;;;;;;5006447;28;93858;-68
2024/01/15 10:12:54;;;;;;;8.05;1.73;;;;;;;;;;5004939;28;93952;-68
2024/01/15 10:15:26;;;;;;;6.78;1.70;;;;;;;;;;5001169;28;93233;-68
2024/01/15 10:17:52;;;;;;;6.75;1.98;;;;;;;;;;5000677;28;93573;-68
2024/01/15 10:20:22;;;;;;;4.43;1.90;;;;;;;;;;5004328;28;92518;-67
2024/01/15 10:22:50;;;;;;;7.07;2.30;;;;;;;;;;5005942;28;92334;-67
2024/01/15 10:25:22;;;;;;;4.70;1.75;;;;;;;;;;4999465;28;96172;-68
2024/01/15 10:27:58;;;;;;;8.23;1.95;;;;;;;;;;4998370;28;92483;-68
2024/01/15 10:30:24;;;;;;;2.85;1.05;;;;;;;;;;4997907;28;93227;-70
2024/01/15 10:33:01;;;;;;;19.33;2.17;;;;;;;;;;5004552;28;92442;-64
2024/01/15 10:35:31;;;;;;;5.53;1.92;;;;;;;;;;5003234;28;93234;-63
2024/01/15 10:38:01;;;;;;;6.75;2.05;;;;;;;;;;4997875;28;93559;-63
2024/01/15 10:40:28;;;;;;;8.83;1.70;;;;;;;;;;5004350;28;92873;-64
2024/01/15 10:42:54;;;;;;;8.75;1.90;;;;;;;;;;5002912;28;94190;-62
2024/01/15 10:45:21;;;;;;;5.45;1.38;;;;;;;;;;4998365;28;94864;-65
2024/01/15 10:47:48;;;;;;;8.35;1.35;;;;;;;;;;4999102;28;92605;-64
2024/01/15 10:50:15;;;;;;;8.32;1.88;;;;;;;;;;4998569;28;94949;-63
2024/01/15 10:52:42;;;;;;;8.77;1.63;;;;;;;;;;5008013;28;93759;-63
2024/01/15 10:55:09;;;;;;;11.60;1.60;;;;;;;;;;4996898;28;93121;-66
2024/01/15 10:57:44;;;;;;;6.85;1.42;;;;;;;;;;4999310;28;93866;-65
2024/01/15 11:00:14;;;;;;;14.43;3.22;;;;;;;;;;5005703;28;92521;-66
2024/01/15 11:02:42;;;;;;;22.35;3.92;;;;;;;;;;5001635;28;93268;-66
2024/01/15 11:05:08;;;;;;;14.25;2.72;;;;;;;;;;5005793;28;93418;-66
2024/01/15 11:07:35;;;;;;;4.68;1.88;;;;;;;;;;4994944;28;91863;-65
2024/01/15 11:10:03;;;;;;;6.00;1.50;;;;;;;;;;4998986;28;92412;-65
2024/01/15 11:12:31;;;;;;;4.60;1.33;;;;;;;;;;5006386;28;93769;-66
2024/01/15 11:15:03;;;;;;;8.75;1.55;;;;;;;;;;5000466;28;96232;-66
2024/01/15 11:17:50;;;;;;;9.27;1.90;;;;;;;;;;5000031;28;93441;-65
2024/01/15 11:20:16;;;;;;;5.28;1.20;;;;;;;;;;5000548;28;92787;-65
2024/01/15 11:22:45;;;;;;;10.02;1.55;;;;;;;;;;4997377;28;93444;-66
2024/01/15 11:25:13;;;;;;;9.20;1.50;;;;;;;;;;5000748;28;94797;-66
2024/01/15 11:27:43;;;;;;;10.35;1.67;;;;;;;;;;5001771;28;92704;-65
2024/01/15 11:30:10;;;;;;;;;;;;;;;;;;4999452;28;94167;-66
2024/01/15 11:32:37;;;;;;;6.80;1.10;;;;;;;;;;5002860;28;123193;-65
2024/01/15 11:35:06;;;;;;;7.53;0.80;;;;;;;;;;5002349;28;92629;-65
2024/01/15 11:37:51;;;;;;;4.13;0.70;;;;;;;;;;5012806;28;94920;-66
2024/01/15 11:40:18;;;;;;;3.85;1.13;;;;;;;;;;4998607;28;95263;-65
2024/01/15 11:42:45;;;;;;;11.63;1.05;;;;;;;;;;4999499;28;95509;-65
2024/01/15 11:45:12;;;;;;;3.20;1.50;;;;;;;;;;5000553;28;93475;-66
2024/01/15 11:47:50;;;;;;;3.97;0.60;;;;;;;;;;5000604;28;92543;-66
2024/01/15 11:50:17;;;;;;;11.63;0.90;;;;;;;;;;4997827;28;92491;-65
2024/01/15 11:52:49;;;;;;;6.03;1.27;;;;;;;;;;4984223;28;93747;-66
2024/01/15 11:55:21;;;;;;;3.83;0.80;;;;;;;;;;4988908;28;92869;-65
2024/01/15 11:57:47;;;;;;;6.55;0.77;;;;;;;;;;4992135;28;93082;-66
2024/01/15 12:00:15;;;;;;;1.63;0.70;;;;;;;;;;4993045;28;93024;-66
2024/01/15 12:02:42;;;;;;;0.88;0.38;;;;;;;;;;4997107;28;93340;-66
2024/01/15 12:05:09;;;;;;;4.03;0.82;;;;;;;;;;5002765;28;95820;-64
2024/01/15 12:07:35;;;;;;;5.10;0.70;;;;;;;;;;5001217;28;92578;-65
2024/01/15 12:10:02;;;;;;;5.10;1.20;;;;;;;;;;5003624;28;93102;-63
2024/01/15 12:12:37;;;;;;;4.35;0.88;;;;;;;;;;5002397;28;94744;-65
2024/01/15 12:15:04;;;;;;;8.55;1.52;;;;;;;;;;4997038;28;92739;-66
2024/01/15 12:17:30;;;;;;;7.90;1.35;;;;;;;;;;4999841;28;92554;-65
2024/01/15 12:19:57;;;;;;;4.82;0.93;;;;;;;;;;5006501;28;93760;-67
2024/01/15 12:22:23;;;;;;;2.17;0.90;;;;;;;;;;5002894;28;97080;-67
2024/01/15 12:24:49;;;;;;;7.78;1.00;;;;;;;;;;4997366;28;92700;-65
2024/01/15 12:27:16;;;;;;;4.30;1.00;;;;;;;;;;4998627;28;92942;-65
2024/01/15 12:29:42;;;;;;;2.83;0.98;;;;;;;;;;4999533;28;94864;-70
2024/01/15 12:32:09;;;;;;;3.42;0.85;;;;;;;;;;5001190;28;93456;-69
2024/01/15 12:34:37;;;;;;;3.15;1.38;;;;;;;;;;5000637;28;92378;-70
2024/01/15 12:37:03;;;;;;;5.05;0.88;;;;;;;;;;4994878;28;93134;-70
2024/01/15 12:39:30;;;;;;;6.20;0.90;;;;;;;;;;5001280;28;93480;-69
2024/01/15 12:41:57;;;;;;;8.82;1.05;;;;;;;;;;5005048;28;92350;-69
2024/01/15 12:44:24;;;;;;;5.03;1.25;;;;;;;;;;4997032;28;93903;-71
2024/01/15 12:46:50;;;;;;;6.03;1.70;;;;;;;;;;4992525;28;91897;-71
2024/01/15 12:49:17;;;;;;;7.07;1.20;;;;;;;;;;4999024;28;92502;-71
2024/01/15 12:51:43;;;;;;;11.13;1.08;;;;;;;;;;5000335;28;93316;-71
2024/01/15 12:54:09;;;;;;;7.78;1.35;;;;;;;;;;4998698;28;95227;-72
2024/01/15 12:56:36;;;;;;;8.63;1.02;;;;;;;;;;5001959;28;95550;-72
2024/01/15 12:59:02;;;;;;;4.85;0.73;;;;;;;;;;5000590;28;93380;-72
2024/01/15 13:01:29;;;;;;;6.20;0.80;;;;;;;;;;5002702;28;92504;-71
2024/01/15 13:03:56;;;;;;;4.75;0.80;;;;;;;;;;5004407;28;93231;-72
2024/01/15 13:06:22;;;;;;;4.63;0.52;;;;;;;;;;4999771;28;92637;-71
2024/01/15 13:08:49;;;;;;;9.27;1.08;;;;;;;;;;5005224;28;93177;-70
2024/01/15 13:11:15;;;;;;;6.72;1.05;;;;;;;;;;4994856;28;93223;-70
2024/01/15 13:13:42;;;;;;;3.63;0.88;;;;;;;;;;5000884;28;92519;-72
2024/01/15 13:16:09;;;;;;;6.45;1.20;;;;;;;;;;5007108;28;93114;-71
2024/01/15 13:18:35;;;;;;;5.32;0.65;;;;;;;;;;5000573;28;95783;-71
2024/01/15 13:21:02;;;;;;;6.03;1.20;;;;;;;;;;5003307;28;92523;-70
2024/01/15 13:23:28;;;;;;;4.72;0.90;;;;;;;;;;5035084;27;93564;-71
2024/01/15 13:25:55;;;;;;;9.73;1.35;;;;;;;;;;5008998;28;93136;-69
2024/01/15 13:28:21;;;;;;;9.13;1.77;;;;;;;;;;5003268;28;92835;-71
2024/01/15 13:30:49;;;;;;;7.82;1.25;;;;;;;;;;4997269;28;92943;-71
2024/01/15 13:33:15;;;;;;;6.38;1.30;;;;;;;;;;5003905;28;92517;-72
2024/01/15 13:35:42;;;;;;;7.85;1.27;;;;;;;;;;5000612;28;93064;-72
2024/01/15 13:38:08;;;;;;;8.20;1.42;;;;;;;;;;4995025;28;93491;-71
2024/01/15 13:40:35;;;;;;;8.45;1.75;;;;;;;;;;5000183;28;92805;-64
2024/01/15 13:43:01;;;;;;;5.65;1.52;;;;;;;;;;5000114;28;94850;-66
2024/01/15 13:45:28;;;;;;;8.20;2.28;;;;;;;;;;5004615;28;93927;-65
2024/01/15 13:47:54;;;;;;;6.38;1.23;;;;;;;;;;5001719;28;92549;-66
2024/01/15 13:50:21;;;;;;;9.90;1.20;;;;;;;;;;4998369;28;95289;-65
2024/01/15 13:52:49;;;;;;;11.18;1.63;;;;;;;;;;4990478;28;94792;-65
2024/01/15 13:55:16;;;;;;;7.47;1.58;;;;;;;;;;4998804;28;93185;-65
2024/01/15 13:57:42;;;;;;;11.48;1.73;;;;;;;;;;5003552;28;93656;-65
2024/01/15 14:00:11;;;;;;;13.25;1.90;;;;;;;;;;5002059;28;91715;-65
2024/01/15 14:02:39;;;;;;;8.27;1.60;;;;;;;;;;4998017;28;92616;-65
2024/01/15 14:05:06;;;;;;;9.27;1.45;;;;;;;;;;5004345;28;93736;-65
2024/01/15 14:07:32;;;;;;;5.65;1.35;;;;;;;;;;5001130;28;94857;-66
2024/01/15 14:09:59;;;;;;;8.52;1.60;;;;;;;;;;4999774;28;94001;-64
2024/01/15 14:12:26;;;;;;;6.25;1.50;;;;;;;;;;5000957;28;92764;-66
2024/01/15 14:14:53;;;;;;;12.63;2.25;;;;;;;;;;4996113;28;94647;-66
2024/01/15 14:17:19;;;;;;;6.03;1.45;;;;;;;;;;5006034;28;93437;-66
2024/01/15 14:19:45;;;;;;;6.82;1.73;;;;;;;;;;5006027;28;92557;-68
2024/01/15 14:22:12;;;;;;;11.90;1.95;;;;;;;;;;5007278;28;93086;-67
2024/01/15 14:24:38;;;;;;;10.25;2.05;;;;;;;;;;4996708;28;94161;-69
2024/01/15 14:27:06;;;;;;;8.23;1.30;;;;;;;;;;5001475;28;92595;-67
2024/01/15 14:29:33;;;;;;;10.90;1.77;;;;;;;;;;5001813;28;93100;-68
2024/01/15 14:31:59;;;;;;;13.45;1.30;;;;;;;;;;5001191;28;96352;-68
2024/01/15 14:34:26;;;;;;;11.82;1.85;;;;;;;;;;5003235;28;95961;-69
2024/01/15 14:36:55;;;;;;;9.75;1.75;;;;;;;;;;5000930;28;93378;-68